Terminal Aerodrome Forecast
Issued by NWS

Home | Current Version | Previous Version | Text Only | Print | Product List | Glossary On
Versions: 1 2 3 4 5 6 7 8 9 10 11 12 13 14 15 16 17 18 19 20 21 22 23
000
FTUS43 KJKL 030650 AAA
TAFSME
TAF AMD
KSME 030650Z 0307/0406 00000KT 6SM BR VCSH BKN015 BKN150
      TEMPO 0307/0309 3SM BR OVC005
     FM030900 00000KT 3SM BR BKN015 BKN150
     FM031300 VRB03KT P6SM VCSH BKN006 OVC120
     FM031600 25009KT P6SM VCTS SCT020CB BKN130=

USA.gov is the U.S. government's official web portal to all federal, state and local government web resources and services.